createdAt,value
2024-05-09T00:02:29.157Z,98496.78
2024-05-09T00:04:58.753Z,98490.91
2024-05-09T00:07:28.326Z,98484.09
2024-05-09T00:09:57.788Z,98486.69
2024-05-09T00:12:27.308Z,98494.53
2024-05-09T00:14:56.793Z,98481.03
2024-05-09T00:17:29.110Z,98485.72
2024-05-09T00:19:58.875Z,98489.63
2024-05-09T00:22:28.514Z,98488.31
2024-05-09T00:24:57.991Z,98490.91
2024-05-09T00:27:27.556Z,98488.75
2024-05-09T00:29:57.093Z,98484.25
2024-05-09T00:32:29.430Z,98483.31
2024-05-09T00:34:59.070Z,98482.50
2024-05-09T00:37:28.566Z,98480.56
2024-05-09T00:39:58.036Z,98485.16
2024-05-09T00:42:27.507Z,98497.38
2024-05-09T00:44:56.946Z,98480.13
2024-05-09T00:47:29.730Z,98477.66
2024-05-09T00:49:59.805Z,98486.81
2024-05-09T00:52:30.120Z,98480.63
2024-05-09T00:55:00.832Z,98483.88
2024-05-09T00:57:30.648Z,98481.88
2024-05-09T01:00:00.598Z,98484.91
2024-05-09T01:02:34.011Z,98479.19
2024-05-09T01:05:03.897Z,98479.19
2024-05-09T01:07:33.784Z,98483.75
2024-05-09T01:10:05.589Z,98466.06
2024-05-09T01:12:36.796Z,98477.88
2024-05-09T01:15:06.942Z,98479.25
2024-05-09T01:17:39.375Z,98483.97
2024-05-09T01:20:10.984Z,98472.84
2024-05-09T01:22:47.228Z,98477.09
2024-05-09T01:25:19.554Z,98480.81
2024-05-09T01:27:49.054Z,98475.78
2024-05-09T01:30:24.321Z,98481.19
2024-05-09T01:32:57.537Z,98476.78
2024-05-09T01:35:27.674Z,98473.41
2024-05-09T01:37:57.331Z,98475.81
2024-05-09T01:40:37.137Z,98472.94
2024-05-09T01:43:10.725Z,98474.16
2024-05-09T01:45:41.501Z,98479.56
2024-05-09T01:48:11.846Z,98467.03
2024-05-09T01:50:43.154Z,98472.63
2024-05-09T01:53:15.033Z,98469.59
2024-05-09T01:55:47.795Z,98463.50
2024-05-09T01:58:17.590Z,98459.97
2024-05-09T02:00:48.187Z,98455.09
2024-05-09T02:03:18.235Z,98461.50
2024-05-09T02:05:50.116Z,98459.84
2024-05-09T02:08:21.099Z,98460.38
2024-05-09T02:10:53.744Z,98455.13
2024-05-09T02:13:23.336Z,98454.13
2024-05-09T02:15:52.968Z,98452.91
2024-05-09T02:18:22.847Z,98454.97
2024-05-09T02:20:52.573Z,98458.84
2024-05-09T02:23:22.285Z,98453.97
2024-05-09T02:25:54.545Z,98466.47
2024-05-09T02:28:24.209Z,98471.88
2024-05-09T02:30:53.763Z,98465.44
2024-05-09T02:33:23.758Z,98466.28
2024-05-09T02:35:53.399Z,98469.66
2024-05-09T02:38:24.110Z,98472.72
2024-05-09T02:40:56.384Z,98474.22
2024-05-09T02:43:26.084Z,98465.94
2024-05-09T02:45:55.560Z,98471.19
2024-05-09T02:48:25.267Z,98468.28
2024-05-09T02:50:54.923Z,98465.25
2024-05-09T02:53:24.680Z,98464.03
2024-05-09T02:55:56.897Z,98464.22
2024-05-09T02:58:26.585Z,98468.59
2024-05-09T03:00:56.244Z,98469.44
2024-05-09T03:03:26.264Z,98466.56
2024-05-09T03:05:55.971Z,98472.84
2024-05-09T03:08:27.595Z,98462.00
2024-05-09T03:10:59.813Z,98474.31
2024-05-09T03:13:29.343Z,98471.81
2024-05-09T03:15:59.881Z,98464.56
2024-05-09T03:18:29.626Z,98476.19
2024-05-09T03:20:59.558Z,98476.53
2024-05-09T03:23:29.092Z,98473.47
2024-05-09T03:26:01.384Z,98477.03
2024-05-09T03:28:30.960Z,98466.38
2024-05-09T03:31:00.486Z,98463.50
2024-05-09T03:33:30.254Z,98463.34
2024-05-09T03:36:01.168Z,98476.69
2024-05-09T03:38:31.263Z,98477.03
2024-05-09T03:41:03.840Z,98476.38
2024-05-09T03:43:33.484Z,98469.63
2024-05-09T03:46:02.977Z,98466.09
2024-05-09T03:48:34.934Z,98469.63
2024-05-09T03:51:05.064Z,98469.97
2024-05-09T03:53:34.941Z,98476.22
2024-05-09T03:56:10.184Z,98473.38
2024-05-09T03:58:39.779Z,98481.81
2024-05-09T04:01:09.394Z,98481.16
2024-05-09T04:03:39.700Z,98475.56
2024-05-09T04:06:09.289Z,98478.25
2024-05-09T04:08:38.967Z,98471.84
2024-05-09T04:11:11.248Z,98482.47
2024-05-09T04:13:40.799Z,98477.72
2024-05-09T04:16:11.379Z,98486.34
2024-05-09T04:18:41.029Z,98485.66
2024-05-09T04:21:10.781Z,98485.34
2024-05-09T04:23:40.825Z,98486.00
2024-05-09T04:26:14.070Z,98492.06
2024-05-09T04:28:43.689Z,98490.38
2024-05-09T04:31:13.215Z,98484.75
2024-05-09T04:33:42.803Z,98487.97
2024-05-09T04:36:12.449Z,98486.75
2024-05-09T04:38:41.981Z,98496.88
2024-05-09T04:41:14.236Z,98498.03
2024-05-09T04:43:43.932Z,98499.56
2024-05-09T04:46:14.867Z,98496.66
2024-05-09T04:48:45.174Z,98485.28
2024-05-09T04:51:14.778Z,98491.16
2024-05-09T04:53:44.507Z,98477.63
2024-05-09T04:56:16.892Z,98481.50
2024-05-09T04:58:46.661Z,98482.19
2024-05-09T05:01:16.435Z,98486.03
2024-05-09T05:03:46.327Z,98482.94
2024-05-09T05:06:16.027Z,98485.50
2024-05-09T05:08:45.696Z,98478.94
2024-05-09T05:11:18.002Z,98481.09
2024-05-09T05:13:47.688Z,98482.66
2024-05-09T05:16:17.176Z,98484.47
2024-05-09T05:18:46.848Z,98478.22
2024-05-09T05:21:16.522Z,98480.38
2024-05-09T05:23:46.239Z,98483.75
2024-05-09T05:26:20.556Z,98480.84
2024-05-09T05:28:51.059Z,98486.47
2024-05-09T05:31:20.698Z,98486.94
2024-05-09T05:33:50.313Z,98478.94
2024-05-09T05:36:19.953Z,98488.06
2024-05-09T05:38:49.729Z,98486.97
2024-05-09T05:41:22.227Z,98480.47
2024-05-09T05:43:52.005Z,98487.69
2024-05-09T05:46:21.588Z,98477.16
2024-05-09T05:48:51.168Z,98485.41
2024-05-09T05:51:20.764Z,98493.56
2024-05-09T05:53:50.503Z,98484.88
2024-05-09T05:56:22.959Z,98494.53
2024-05-09T05:58:52.535Z,98484.25
2024-05-09T06:01:22.121Z,98487.53
2024-05-09T06:03:51.833Z,98487.06
2024-05-09T06:06:21.467Z,98492.38
2024-05-09T06:08:51.296Z,98494.63
2024-05-09T06:11:23.640Z,98490.59
2024-05-09T06:13:53.400Z,98489.09
2024-05-09T06:16:22.942Z,98483.84
2024-05-09T06:18:52.625Z,98484.19
2024-05-09T06:21:22.436Z,98481.78
2024-05-09T06:23:53.437Z,98482.81
2024-05-09T06:26:25.734Z,98485.88
2024-05-09T06:28:55.418Z,98488.09
2024-05-09T06:31:25.048Z,98486.13
2024-05-09T06:33:54.671Z,98482.69
2024-05-09T06:36:24.637Z,98478.38
2024-05-09T06:38:54.226Z,98480.41
2024-05-09T06:41:26.583Z,98473.81
2024-05-09T06:43:56.216Z,98477.88
2024-05-09T06:46:26.682Z,98475.19
2024-05-09T06:48:56.493Z,98469.22
2024-05-09T06:51:26.316Z,98463.66
2024-05-09T06:53:56.649Z,98482.00
2024-05-09T06:56:29.117Z,98480.13
2024-05-09T06:58:58.761Z,98478.28
2024-05-09T07:01:28.314Z,98478.31
2024-05-09T07:03:57.950Z,98479.00
2024-05-09T07:06:27.503Z,98480.88
2024-05-09T07:08:57.017Z,98476.91
2024-05-09T07:11:31.466Z,98485.31
2024-05-09T07:14:01.196Z,98477.31
2024-05-09T07:16:30.699Z,98482.56
2024-05-09T07:19:00.515Z,98479.19
2024-05-09T07:21:32.283Z,98484.78
2024-05-09T07:24:01.832Z,98485.78
2024-05-09T07:26:34.091Z,98494.72
2024-05-09T07:29:03.758Z,98486.41
2024-05-09T07:31:33.328Z,98473.59
2024-05-09T07:34:03.099Z,98459.91
2024-05-09T07:36:32.773Z,98477.13
2024-05-09T07:39:02.415Z,98476.25
2024-05-09T07:41:34.788Z,98471.22
2024-05-09T07:44:04.707Z,98465.09
2024-05-09T07:53:14.367Z,98463.22
2024-05-09T07:54:29.351Z,98462.00
2024-05-09T07:57:02.008Z,98459.31
2024-05-09T07:59:35.061Z,98460.09
2024-05-09T08:02:06.835Z,98456.47
2024-05-09T08:04:43.828Z,98431.03
2024-05-09T08:07:13.588Z,98448.47
2024-05-09T08:09:43.413Z,98446.91
2024-05-09T08:12:16.282Z,98441.91
2024-05-09T08:14:45.933Z,98434.69
2024-05-09T08:17:15.626Z,98431.56
2024-05-09T08:19:45.337Z,98438.84
2024-05-09T08:22:15.023Z,98437.06
2024-05-09T08:24:45.772Z,98430.09
2024-05-09T08:27:18.124Z,98441.53
2024-05-09T08:29:47.645Z,98443.44
2024-05-09T08:32:17.346Z,98438.41
2024-05-09T08:34:47.258Z,98436.38
2024-05-09T08:37:22.361Z,98427.97
2024-05-09T08:39:54.251Z,98432.97
2024-05-09T08:42:29.218Z,98431.47
2024-05-09T08:44:58.777Z,98435.81
2024-05-09T08:47:31.564Z,98422.69
2024-05-09T08:50:03.166Z,98432.47
2024-05-09T08:52:34.307Z,98434.31
2024-05-09T08:55:04.279Z,98427.53
2024-05-09T08:57:37.549Z,98427.16
2024-05-09T09:00:12.693Z,98423.72
2024-05-09T09:02:45.955Z,98422.09
2024-05-09T09:05:17.459Z,98427.53
2024-05-09T09:07:51.701Z,98422.69
2024-05-09T09:10:29.731Z,98423.41
2024-05-09T09:13:07.171Z,98424.50
2024-05-09T09:15:46.884Z,98427.69
2024-05-09T09:18:17.490Z,98424.72
2024-05-09T09:20:48.082Z,98422.94
2024-05-09T09:23:17.709Z,98428.31
2024-05-09T09:25:47.607Z,98422.13
2024-05-09T09:28:23.170Z,98419.25
2024-05-09T09:30:52.979Z,98409.91
2024-05-09T09:33:22.763Z,98422.59
2024-05-09T09:35:52.491Z,98431.94
2024-05-09T09:38:23.388Z,98416.75
2024-05-09T09:40:53.266Z,98423.22
2024-05-09T09:43:26.860Z,98420.34
2024-05-09T09:46:00.120Z,98422.00
2024-05-09T09:48:31.470Z,98417.94
2024-05-09T09:51:01.603Z,98419.28
2024-05-09T09:53:33.511Z,98419.50
2024-05-09T09:56:04.686Z,98415.41
2024-05-09T09:58:39.451Z,98417.78
2024-05-09T10:01:08.862Z,98413.41
2024-05-09T10:03:38.899Z,98407.13
2024-05-09T10:06:09.633Z,98412.06
2024-05-09T10:08:40.009Z,98411.94
2024-05-09T10:11:10.106Z,98417.06
2024-05-09T10:13:42.406Z,98415.53
2024-05-09T10:16:12.483Z,98413.31
2024-05-09T10:18:42.311Z,98415.00
2024-05-09T10:21:18.667Z,98416.66
2024-05-09T10:23:59.550Z,98406.91
2024-05-09T10:26:33.895Z,98414.38
2024-05-09T10:29:14.444Z,98417.69
2024-05-09T10:31:45.077Z,98408.44
2024-05-09T10:34:19.189Z,98405.25
2024-05-09T10:36:52.349Z,98386.75
2024-05-09T10:39:22.252Z,98408.78
2024-05-09T10:41:51.793Z,98409.69
2024-05-09T10:44:23.949Z,98404.34
2024-05-09T10:46:54.897Z,98396.63
2024-05-09T10:49:24.887Z,98395.84
2024-05-09T10:51:54.550Z,98389.28
2024-05-09T10:54:24.090Z,98399.81
2024-05-09T10:56:57.698Z,98392.63
2024-05-09T10:59:35.997Z,98381.47
2024-05-09T11:02:08.021Z,98392.56
2024-05-09T11:04:40.429Z,98382.22
2024-05-09T11:07:12.333Z,98379.53
2024-05-09T11:09:42.958Z,98380.38
2024-05-09T11:12:12.715Z,98377.44
2024-05-09T11:14:54.882Z,98382.22
2024-05-09T11:17:24.586Z,98379.94
2024-05-09T11:19:54.282Z,98370.91
2024-05-09T11:22:25.237Z,98374.00
2024-05-09T11:24:55.353Z,98371.00
2024-05-09T11:27:25.046Z,98368.41
2024-05-09T11:29:58.692Z,98371.88
2024-05-09T11:32:29.758Z,98370.47
2024-05-09T11:34:59.483Z,98366.69
2024-05-09T11:37:31.834Z,98359.97
2024-05-09T11:40:03.405Z,98361.72
2024-05-09T11:42:33.963Z,98335.97
2024-05-09T11:45:06.754Z,98351.88
2024-05-09T11:47:36.380Z,98347.28
2024-05-09T11:50:08.220Z,98351.97
2024-05-09T11:52:40.954Z,98353.59
2024-05-09T11:55:11.078Z,98329.69
2024-05-09T11:57:40.839Z,98347.78
2024-05-09T12:00:18.247Z,98341.91
2024-05-09T12:02:56.244Z,98344.72
2024-05-09T12:05:26.104Z,98334.44
2024-05-09T12:07:56.489Z,98333.19
2024-05-09T12:10:32.485Z,98325.56
2024-05-09T12:13:06.689Z,98332.09
2024-05-09T12:15:39.857Z,98332.75
2024-05-09T12:18:09.510Z,98330.81
2024-05-09T12:20:40.199Z,98325.50
2024-05-09T12:23:10.701Z,98336.88
2024-05-09T12:25:40.700Z,98332.38
2024-05-09T12:28:10.380Z,98327.56
2024-05-09T12:30:42.937Z,98326.72
2024-05-09T12:33:13.788Z,98327.94
2024-05-09T12:35:46.427Z,98320.34
2024-05-09T12:38:18.224Z,98318.06
2024-05-09T12:40:47.855Z,98318.91
2024-05-09T12:43:17.754Z,98312.84
2024-05-09T12:45:49.973Z,98321.50
2024-05-09T12:48:19.786Z,98322.53
2024-05-09T12:50:49.673Z,98314.91
2024-05-09T12:53:19.224Z,98315.28
2024-05-09T12:55:56.419Z,98319.44
2024-05-09T12:58:29.442Z,98311.66
2024-05-09T13:01:01.647Z,98302.28
2024-05-09T13:03:31.596Z,98300.00
2024-05-09T13:06:01.489Z,98296.63
2024-05-09T13:08:30.975Z,98296.41
2024-05-09T13:11:00.593Z,98297.22
2024-05-09T13:13:30.232Z,98296.75
2024-05-09T13:16:02.577Z,98295.63
2024-05-09T13:18:33.596Z,98298.09
2024-05-09T13:21:03.255Z,98283.47
2024-05-09T13:23:32.740Z,98283.44
2024-05-09T13:26:02.220Z,98283.91
2024-05-09T13:28:33.583Z,98281.13
2024-05-09T13:31:05.947Z,98273.28
2024-05-09T13:33:35.766Z,98268.00
2024-05-09T13:36:06.470Z,98256.81
2024-05-09T13:38:35.976Z,98255.88
2024-05-09T13:41:05.539Z,98266.75
2024-05-09T13:43:35.189Z,98253.84
2024-05-09T13:46:07.662Z,98257.63
2024-05-09T13:48:37.368Z,98259.63
2024-05-09T13:51:07.138Z,98241.41
2024-05-09T13:53:36.810Z,98248.81
2024-05-09T13:56:08.666Z,98242.25
2024-05-09T13:58:38.436Z,98252.66
2024-05-09T14:01:10.666Z,98247.13
2024-05-09T14:03:40.426Z,98247.34
2024-05-09T14:06:13.032Z,98241.00
2024-05-09T14:08:42.835Z,98227.22
2024-05-09T14:11:12.523Z,98222.72
2024-05-09T14:13:42.132Z,98221.88
2024-05-09T14:16:14.720Z,98220.53
2024-05-09T14:18:44.453Z,98222.63
2024-05-09T14:21:14.267Z,98213.53
2024-05-09T14:23:43.775Z,98223.28
2024-05-09T14:26:14.135Z,98217.81
2024-05-09T14:28:44.275Z,98217.44
2024-05-09T14:31:16.461Z,98206.84
2024-05-09T14:33:46.227Z,98220.25
2024-05-09T14:36:15.773Z,98226.66
2024-05-09T14:38:45.302Z,98215.31
2024-05-09T14:41:14.823Z,98199.38
2024-05-09T14:43:44.336Z,98197.31
2024-05-09T14:46:16.940Z,98194.09
2024-05-09T14:48:46.611Z,98192.53
2024-05-09T14:51:16.633Z,98187.25
2024-05-09T14:53:46.359Z,98185.75
2024-05-09T14:56:15.975Z,98189.94
2024-05-09T14:58:45.663Z,98187.88
2024-05-09T15:01:20.421Z,98182.88
2024-05-09T15:03:50.197Z,98182.63
2024-05-09T15:06:20.004Z,98189.28
2024-05-09T15:08:54.735Z,98181.72
2024-05-09T15:11:24.658Z,98170.09
2024-05-09T15:13:54.188Z,98180.03
2024-05-09T15:16:26.738Z,98169.53
2024-05-09T15:18:56.620Z,98171.41
2024-05-09T15:21:26.209Z,98144.16
2024-05-09T15:23:55.635Z,98164.19
2024-05-09T15:26:25.401Z,98163.13
2024-05-09T15:28:54.924Z,98159.63
2024-05-09T15:31:27.179Z,98161.75
2024-05-09T15:33:56.771Z,98162.19
2024-05-09T15:36:26.680Z,98158.78
2024-05-09T15:38:56.214Z,98152.59
2024-05-09T15:41:26.035Z,98160.28
2024-05-09T15:43:55.573Z,98155.47
2024-05-09T15:46:28.006Z,98160.38
2024-05-09T15:48:57.749Z,98155.38
2024-05-09T15:51:27.403Z,98158.63
2024-05-09T15:53:56.881Z,98156.38
2024-05-09T15:56:27.101Z,98149.78
2024-05-09T15:58:57.906Z,98144.72
2024-05-09T16:01:30.350Z,98148.97
2024-05-09T16:04:00.077Z,98152.84
2024-05-09T16:06:30.083Z,98152.88
2024-05-09T16:08:59.969Z,98147.41
2024-05-09T16:11:29.505Z,98142.09
2024-05-09T16:13:59.122Z,98148.72
2024-05-09T16:16:31.704Z,98144.06
2024-05-09T16:19:01.870Z,98144.41
2024-05-09T16:21:31.626Z,98147.22
2024-05-09T16:24:01.355Z,98147.72
2024-05-09T16:26:30.894Z,98142.09
2024-05-09T16:29:00.482Z,98135.50
2024-05-09T16:31:32.757Z,98133.59
2024-05-09T16:34:02.567Z,98132.44
2024-05-09T16:36:32.731Z,98131.91
2024-05-09T16:39:02.331Z,98131.19
2024-05-09T16:41:31.947Z,98134.84
2024-05-09T16:44:01.792Z,98132.88
2024-05-09T16:46:34.109Z,98131.25
2024-05-09T16:49:04.065Z,98126.22
2024-05-09T16:51:33.783Z,98131.84
2024-05-09T16:54:03.442Z,98132.81
2024-05-09T16:56:32.932Z,98128.00
2024-05-09T16:59:02.421Z,98128.00
2024-05-09T17:01:34.780Z,98129.41
2024-05-09T17:04:04.769Z,98129.44
2024-05-09T17:06:34.616Z,98122.47
2024-05-09T17:09:08.603Z,98124.97
2024-05-09T17:11:41.471Z,98118.78
2024-05-09T17:14:11.078Z,98124.06
2024-05-09T17:16:43.291Z,98126.69
2024-05-09T17:19:12.967Z,98122.78
2024-05-09T17:21:42.462Z,98124.16
2024-05-09T17:24:12.028Z,98113.34
2024-05-09T17:26:41.604Z,98115.00
2024-05-09T17:29:12.596Z,98126.63
2024-05-09T17:31:44.922Z,98120.88
2024-05-09T17:34:14.811Z,98124.72
2024-05-09T17:36:44.557Z,98127.75
2024-05-09T17:39:14.215Z,98128.00
2024-05-09T17:41:43.841Z,98146.88
2024-05-09T17:44:13.325Z,98124.59
2024-05-09T17:46:45.822Z,98137.59
2024-05-09T17:49:15.484Z,98135.03
2024-05-09T17:51:51.225Z,98133.34
2024-05-09T17:54:21.118Z,98133.22
2024-05-09T17:56:51.205Z,98133.72
2024-05-09T17:59:20.654Z,98134.47
2024-05-09T18:01:52.963Z,98136.50
2024-05-09T18:04:22.620Z,98136.63
2024-05-09T18:06:52.392Z,98134.38
2024-05-09T18:09:22.126Z,98129.13
2024-05-09T18:11:51.715Z,98133.94
2024-05-09T18:14:21.267Z,98137.50
2024-05-09T18:16:53.638Z,98135.59
2024-05-09T18:19:23.436Z,98141.34
2024-05-09T18:21:54.073Z,98138.03
2024-05-09T18:24:24.743Z,98136.50
2024-05-09T18:26:54.488Z,98137.78
2024-05-09T18:29:24.131Z,98138.28
2024-05-09T18:31:56.412Z,98141.41
2024-05-09T18:34:26.149Z,98144.72
2024-05-09T18:36:55.830Z,98147.81
2024-05-09T18:39:25.404Z,98141.72
2024-05-09T18:41:55.062Z,98141.50
2024-05-09T18:44:24.687Z,98145.97
2024-05-09T18:46:57.130Z,98146.75
2024-05-09T18:49:26.944Z,98140.66
2024-05-09T18:51:56.658Z,98150.88
2024-05-09T18:54:26.288Z,98153.19
2024-05-09T18:56:56.023Z,98148.22
2024-05-09T18:59:25.648Z,98145.69
2024-05-09T19:01:58.362Z,98154.28
2024-05-09T19:04:28.060Z,98155.34
2024-05-09T19:06:57.858Z,98157.97
2024-05-09T19:09:27.383Z,98170.00
2024-05-09T19:11:57.390Z,98166.41
2024-05-09T19:14:27.020Z,98161.19
2024-05-09T19:16:59.340Z,98164.25
2024-05-09T19:19:29.078Z,98165.06
2024-05-09T19:21:58.874Z,98169.28
2024-05-09T19:24:28.494Z,98170.91
2024-05-09T19:26:58.259Z,98170.84
2024-05-09T19:29:27.872Z,98186.66
2024-05-09T19:32:00.430Z,98192.34
2024-05-09T19:34:30.118Z,98184.69
2024-05-09T19:37:01.476Z,98190.41
2024-05-09T19:39:31.319Z,98198.00
2024-05-09T19:42:00.815Z,98198.72
2024-05-09T19:44:30.370Z,98198.19
2024-05-09T19:47:02.750Z,98195.38
2024-05-09T19:49:32.685Z,98200.34
2024-05-09T19:52:02.222Z,98197.44
2024-05-09T19:54:31.760Z,98194.78
2024-05-09T19:57:01.312Z,98190.69
2024-05-09T19:59:30.799Z,98201.41
2024-05-09T20:02:03.379Z,98201.50
2024-05-09T20:04:33.136Z,98194.59
2024-05-09T20:07:02.908Z,98206.00
2024-05-09T20:09:32.479Z,98206.03
2024-05-09T20:12:02.097Z,98201.28
2024-05-09T20:14:31.613Z,98219.31
2024-05-09T20:17:04.066Z,98224.38
2024-05-09T20:19:33.679Z,98208.28
2024-05-09T20:22:03.490Z,98211.03
2024-05-09T20:24:33.402Z,98218.63
2024-05-09T20:27:02.988Z,98218.44
2024-05-09T20:29:32.562Z,98223.06
2024-05-09T20:32:05.333Z,98217.00
2024-05-09T20:34:34.949Z,98219.97
2024-05-09T20:37:04.862Z,98226.91
2024-05-09T20:39:34.520Z,98219.81
2024-05-09T20:42:04.699Z,98213.72
2024-05-09T20:44:34.369Z,98215.19
2024-05-09T20:47:06.679Z,98215.84
2024-05-09T20:49:36.241Z,98215.19
2024-05-09T20:52:06.198Z,98214.59
2024-05-09T20:54:35.888Z,98209.13
2024-05-09T20:57:06.542Z,98215.38
2024-05-09T20:59:37.863Z,98213.06
2024-05-09T21:02:10.249Z,98216.00
2024-05-09T21:04:40.160Z,98206.78
2024-05-09T21:07:09.833Z,98208.66
2024-05-09T21:09:39.430Z,98206.56
2024-05-09T21:12:09.179Z,98200.44
2024-05-09T21:14:38.810Z,98194.19
2024-05-09T21:17:11.185Z,98192.66
2024-05-09T21:19:40.895Z,98199.38
2024-05-09T21:22:10.419Z,98201.44
2024-05-09T21:24:39.917Z,98204.16
2024-05-09T21:27:09.408Z,98198.91
2024-05-09T21:29:38.922Z,98202.19
2024-05-09T21:32:11.306Z,98208.28
2024-05-09T21:34:40.933Z,98201.13
2024-05-09T21:37:10.622Z,98204.44
2024-05-09T21:39:40.174Z,98199.56
2024-05-09T21:42:09.823Z,98199.28
2024-05-09T21:44:39.295Z,98203.50
2024-05-09T21:47:12.382Z,98203.28
2024-05-09T21:49:41.910Z,98194.66
2024-05-09T21:52:11.605Z,98198.19
2024-05-09T21:54:41.232Z,98195.22
2024-05-09T21:57:11.106Z,98197.75
2024-05-09T21:59:42.019Z,98191.03
2024-05-09T22:02:14.855Z,98190.81
2024-05-09T22:04:44.742Z,98191.84
2024-05-09T22:07:14.535Z,98191.00
2024-05-09T22:09:45.719Z,98199.72
2024-05-09T22:12:15.254Z,98199.91
2024-05-09T22:14:45.263Z,98196.69
2024-05-09T22:17:17.562Z,98200.22
2024-05-09T22:19:47.112Z,98192.22
2024-05-09T22:22:16.875Z,98203.88
2024-05-09T22:24:46.461Z,98192.56
2024-05-09T22:27:16.009Z,98197.28
2024-05-09T22:29:45.495Z,98200.84
2024-05-09T22:32:17.634Z,98208.09
2024-05-09T22:34:47.248Z,98210.16
2024-05-09T22:37:17.060Z,98197.63
2024-05-09T22:39:46.599Z,98201.81
2024-05-09T22:42:16.082Z,98194.66
2024-05-09T22:44:45.593Z,98195.09
2024-05-09T22:47:17.837Z,98200.28
2024-05-09T22:49:47.388Z,98193.16
2024-05-09T22:52:17.001Z,98200.47
2024-05-09T22:54:46.627Z,98200.03
2024-05-09T22:57:16.128Z,98201.06
2024-05-09T22:59:45.731Z,98204.53
2024-05-09T23:02:17.987Z,98200.22
2024-05-09T23:04:48.105Z,98204.81
2024-05-09T23:07:17.947Z,98204.69
2024-05-09T23:09:47.712Z,98205.63
2024-05-09T23:12:17.889Z,98197.22
2024-05-09T23:14:47.446Z,98210.03
2024-05-09T23:17:19.798Z,98205.63
2024-05-09T23:19:49.360Z,98212.03
2024-05-09T23:22:19.288Z,98202.56
2024-05-09T23:24:48.978Z,98207.56
2024-05-09T23:27:18.644Z,98205.03
2024-05-09T23:29:48.116Z,98196.63
2024-05-09T23:32:20.680Z,98202.31
2024-05-09T23:34:50.519Z,98189.50
2024-05-09T23:37:20.106Z,98202.69
2024-05-09T23:39:49.743Z,98197.88
2024-05-09T23:42:19.525Z,98193.66
2024-05-09T23:44:49.068Z,98194.03
2024-05-09T23:47:21.367Z,98194.22
2024-05-09T23:49:50.901Z,98199.19
2024-05-09T23:52:20.503Z,98198.06
2024-05-09T23:54:50.364Z,98203.03
2024-05-09T23:57:19.964Z,98196.03
2024-05-09T23:59:49.514Z,98183.91
